Childress, TX

10:01 PM CDT on August 31, 2015 (GMT -0500)
South of old Kirkland gym | | Change Station
CLOSE
Current Station
Personal Weather Station
Location: Kirkland, TX
Elevation: 1755 ft
Nearby Weather Stations

Elev 1755 ft 34.38 °N, 100.06 °W | Updated 48 seconds ago

Clear
Clear
82.4 °F
Feels Like 96 °F
N
4.5
Wind Variable Wind from North
Gusts 6.9 mph

Today
High -- | Low -- °F
--% Chance of Precip.
Yesterday
High -- | Low -- °F
Precip. -- in
7:12 AM 8:08 PM
Waning Gibbous, 92% visible
Pressure 29.88 in
Visibility 10.0 miles
Clouds Clear
Heat Index 96 °F
Dew Point 82 °F
Humidity 99%
Rainfall 0.00 in
Snow Depth Not available.
UV 0 out of 12
Pollen 9.70 out of 12
Air Quality Not available.
Flu Activity Not available.
METAR KCDS 010253Z AUTO 14007KT 10SM CLR 27/13 A2996 RMK AO2 SLP117 T02670128 53016
Pressure 29.88 in
Visibility 10.0 miles
Clouds Clear
Heat Index 96 °F
Dew Point 82 °F
Humidity 99%
Rainfall 0.00 in
Snow Depth Not available.
UV 0 out of 12
Pollen 9.70 out of 12
Air Quality Not available.
Flu Activity Not available.
METAR KCDS 010253Z AUTO 14007KT 10SM CLR 27/13 A2996 RMK AO2 SLP117 T02670128 53016

10-Day Weather Forecast

×

Almanac

Astronomy

Aug. 31, 2015 Rise Set
Actual Time
Civil Twilight
Nautical Twilight
Astronomical Twilight
Moon
Length of Visible Light
Length of Day
Tomorrow will be .
, % of the Moon is Illuminated

Today's Extremes

State Highs State Lows

Community

WunderPhotos

Upload Photos

1,851,463 photos uploaded!

WunderBlogs® & News

Nearby

Air Quality

  Air Quality AQ Index Pollutant
Not available.

Snow Depth

Station Depth Elevation

Earthquake Activity

City Distance Mag. Time & Date
Minimum magnitude displayed is 2.5.

Coastal Water Temperatures

Place Temperature

Stations

Nearby Weather Stations

Station Location Temp. Windchill Dew Point Humidity Wind Precip. Elev Updated Type